createdAt,value
2016-04-05T00:00:13.371Z,715.06
2016-04-05T00:00:27.652Z,714.67
2016-04-05T00:00:41.449Z,715.33
2016-04-05T00:00:54.452Z,715.69
2016-04-05T00:01:08.702Z,715.48
2016-04-05T00:01:23.061Z,715.29
2016-04-05T00:01:37.264Z,715.32
2016-04-05T00:01:51.501Z,715.24
2016-04-05T00:02:05.360Z,715.18
2016-04-05T00:02:19.298Z,715.53
2016-04-05T00:02:33.313Z,716.03
2016-04-05T00:03:14.457Z,715.62
2016-04-05T00:03:28.597Z,715.48
2016-04-05T00:03:42.769Z,715.56
2016-04-05T00:03:57.444Z,715.42
2016-04-05T00:04:11.257Z,715.2
2016-04-05T00:04:25.335Z,715.09
2016-04-05T00:04:39.600Z,715.29
2016-04-05T00:04:53.838Z,715.49
2016-04-05T00:05:36.088Z,715.61
2016-04-05T00:05:49.543Z,715.48
2016-04-05T00:06:06.512Z,715.5
2016-04-05T00:06:20.434Z,715.38
2016-04-05T00:06:34.324Z,715.38
2016-04-05T00:06:48.297Z,715.89
2016-04-05T00:07:02.141Z,715.73
2016-04-05T00:07:16.656Z,715.45
2016-04-05T00:07:30.453Z,715.8
2016-04-05T00:07:44.815Z,715.54
2016-04-05T00:07:58.955Z,715.55
2016-04-05T00:08:12.924Z,716.08
2016-04-05T00:08:27.065Z,715.84
2016-04-05T00:08:41.174Z,715.62
2016-04-05T00:08:55.036Z,715.38
2016-04-05T00:09:09.286Z,715.32
2016-04-05T00:09:23.177Z,715.29
2016-04-05T00:09:37.161Z,715.58
2016-04-05T00:09:50.476Z,715.8
2016-04-05T00:10:04.991Z,715.58
2016-04-05T00:10:18.538Z,715.57
2016-04-05T00:10:35.726Z,715.55
2016-04-05T00:10:50.073Z,715.5
2016-04-05T00:11:04.151Z,715.52
2016-04-05T00:11:18.354Z,715.22
2016-04-05T00:11:32.401Z,715.31
2016-04-05T00:11:46.654Z,715.47
2016-04-05T00:12:00.857Z,715.46
2016-04-05T00:12:15.169Z,715.51
2016-04-05T00:12:29.451Z,715.18
2016-04-05T00:12:43.591Z,715.52
2016-04-05T00:12:57.437Z,715.33
2016-04-05T00:13:39.515Z,715.54
2016-04-05T00:13:53.659Z,715.36
2016-04-05T00:14:07.987Z,715.53
2016-04-05T00:14:21.831Z,715.31
2016-04-05T00:14:36.018Z,715.58
2016-04-05T00:14:50.098Z,715.66
2016-04-05T00:15:04.301Z,715.32
2016-04-05T00:15:18.895Z,715.23
2016-04-05T00:15:32.817Z,714.82
2016-04-05T00:15:46.726Z,716.05
2016-04-05T00:16:00.679Z,715.28
2016-04-05T00:16:14.601Z,715.3
2016-04-05T00:16:28.851Z,715.64
2016-04-05T00:16:42.945Z,715.54
2016-04-05T00:16:57.167Z,715.48
2016-04-05T00:17:11.057Z,715.23
2016-04-05T00:17:25.464Z,715.49
2016-04-05T00:17:39.573Z,715.7
2016-04-05T00:17:53.591Z,715.57
2016-04-05T00:18:08.231Z,715.58
2016-04-05T00:18:22.153Z,715.8
2016-04-05T00:18:36.262Z,715.37
2016-04-05T00:18:50.048Z,715.56
2016-04-05T00:19:04.126Z,715.57
2016-04-05T00:19:17.735Z,715.52
2016-04-05T00:19:32.173Z,715.6
2016-04-05T00:19:46.503Z,715.5
2016-04-05T00:20:00.612Z,715.24
2016-04-05T00:20:14.768Z,715.3
2016-04-05T00:20:28.956Z,715.01
2016-04-05T00:20:43.268Z,715.46
2016-04-05T00:20:57.318Z,715.45
2016-04-05T00:21:11.225Z,715.48
2016-04-05T00:21:25.240Z,715.29
2016-04-05T00:21:39.725Z,715.26
2016-04-05T00:21:53.087Z,715.73
2016-04-05T00:22:06.962Z,715.65
2016-04-05T00:22:21.431Z,715.53
2016-04-05T00:22:35.571Z,715.16
2016-04-05T00:22:49.651Z,715.55
2016-04-05T00:23:03.745Z,716.06
2016-04-05T00:23:17.683Z,715.16
2016-04-05T00:23:31.948Z,715.25
2016-04-05T00:23:47.451Z,715.43
2016-04-05T00:24:02.092Z,715.41
2016-04-05T00:24:16.311Z,715.02
2016-04-05T00:24:30.545Z,714.8
2016-04-05T00:24:44.406Z,714.82
2016-04-05T00:24:58.656Z,714.96
2016-04-05T00:25:12.938Z,715.62
2016-04-05T00:25:27.141Z,715.25
2016-04-05T00:25:41.235Z,715.41
2016-04-05T00:25:55.378Z,715.23
2016-04-05T00:26:09.284Z,715.33
2016-04-05T00:26:23.706Z,715.58
2016-04-05T00:26:37.675Z,715.75
2016-04-05T00:26:51.662Z,715.42
2016-04-05T00:27:05.912Z,715.52
2016-04-05T00:27:19.866Z,715.49
2016-04-05T00:27:33.616Z,715.62
2016-04-05T00:27:49.900Z,715.48
2016-04-05T00:28:04.353Z,715.34
2016-04-05T00:28:18.572Z,715.68
2016-04-05T00:28:32.337Z,715.43
2016-04-05T00:28:46.184Z,715.14
2016-04-05T00:29:00.387Z,715.37
2016-04-05T00:29:14.997Z,715.38
2016-04-05T00:29:29.043Z,715.36
2016-04-05T00:29:43.122Z,715.31
2016-04-05T00:29:57.280Z,715.17
2016-04-05T00:30:11.749Z,715.4
2016-04-05T00:30:25.811Z,715.19
2016-04-05T00:30:40.030Z,715.41
2016-04-05T00:30:54.095Z,715.45
2016-04-05T00:31:08.189Z,715.34
2016-04-05T00:31:22.111Z,715.4
2016-04-05T00:31:36.095Z,715.38
2016-04-05T00:31:51.161Z,715.59
2016-04-05T00:32:19.317Z,715.21
2016-04-05T00:32:31.989Z,715.22
2016-04-05T00:32:46.195Z,715.31
2016-04-05T00:33:00.117Z,715.32
2016-04-05T00:33:14.195Z,715.18
2016-04-05T00:33:28.367Z,715.1
2016-04-05T00:33:42.695Z,715.42
2016-04-05T00:33:56.666Z,715.31
2016-04-05T00:34:13.869Z,715.56
2016-04-05T00:34:27.869Z,715.27
2016-04-05T00:34:41.400Z,715.04
2016-04-05T00:34:55.106Z,715.24
2016-04-05T00:35:09.341Z,715.8
2016-04-05T00:35:23.559Z,715.58
2016-04-05T00:35:37.778Z,715.43
2016-04-05T00:35:51.811Z,715.4
2016-04-05T00:36:05.624Z,715.64
2016-04-05T00:36:20.015Z,715.4
2016-04-05T00:36:34.030Z,716.03
2016-04-05T00:36:47.455Z,715.22
2016-04-05T00:37:30.002Z,715.6
2016-04-05T00:37:44.348Z,715.31
2016-04-05T00:37:58.426Z,715.48
2016-04-05T00:38:12.613Z,715.46
2016-04-05T00:38:26.738Z,715.37
2016-04-05T00:38:40.707Z,715.41
2016-04-05T00:38:54.491Z,715.41
2016-04-05T00:39:08.554Z,715.36
2016-04-05T00:39:22.741Z,715.77
2016-04-05T00:39:36.491Z,715.64
2016-04-05T00:39:50.526Z,715.54
2016-04-05T00:40:04.760Z,715.24
2016-04-05T00:40:19.119Z,715.27
2016-04-05T00:40:33.494Z,715.37
2016-04-05T00:40:47.888Z,715.23
2016-04-05T00:41:01.857Z,715.03
2016-04-05T00:41:16.122Z,715.58
2016-04-05T00:41:29.982Z,715.41
2016-04-05T00:41:44.344Z,715.46
2016-04-05T00:41:58.688Z,715.21
2016-04-05T00:42:12.844Z,715.32
2016-04-05T00:42:26.594Z,715.22
2016-04-05T00:42:40.547Z,715.16
2016-04-05T00:42:54.893Z,715.41
2016-04-05T00:43:09.127Z,715.33
2016-04-05T00:43:22.971Z,715.18
2016-04-05T00:43:37.205Z,715.14
2016-04-05T00:43:51.302Z,715.34
2016-04-05T00:44:05.630Z,715.22
2016-04-05T00:44:19.583Z,715.26
2016-04-05T00:44:33.708Z,715.28
2016-04-05T00:44:47.789Z,715.26
2016-04-05T00:45:01.710Z,715.52
2016-04-05T00:45:15.929Z,715.49
2016-04-05T00:45:30.054Z,715.3
2016-04-05T00:45:44.164Z,714.93
2016-04-05T00:46:12.073Z,715.23
2016-04-05T00:46:28.979Z,715.33
2016-04-05T00:46:42.917Z,715.3
2016-04-05T00:46:56.998Z,715.19
2016-04-05T00:47:11.232Z,715.57
2016-04-05T00:47:26.279Z,715.16
2016-04-05T00:47:40.138Z,715.11
2016-04-05T00:47:54.812Z,715.25
2016-04-05T00:48:08.859Z,715.17
2016-04-05T00:48:23.125Z,715.14
2016-04-05T00:48:37.390Z,715.16
2016-04-05T00:48:51.378Z,715.11
2016-04-05T00:49:04.909Z,715.24
2016-04-05T00:49:18.987Z,715.27
2016-04-05T00:49:33.440Z,715.37
2016-04-05T00:49:47.458Z,715.21
2016-04-05T00:50:01.020Z,715.26
2016-04-05T00:50:15.380Z,715.43
2016-04-05T00:50:29.411Z,715.82
2016-04-05T00:50:43.177Z,715.14
2016-04-05T00:50:57.039Z,715.12
2016-04-05T00:51:11.320Z,715.62
2016-04-05T00:51:25.523Z,715.56
2016-04-05T00:51:39.742Z,715.2
2016-04-05T00:51:53.839Z,715.45
2016-04-05T00:52:07.026Z,715.62
2016-04-05T00:52:21.292Z,715.27
2016-04-05T00:52:35.229Z,715.3
2016-04-05T00:53:17.013Z,715.18
2016-04-05T00:53:31.153Z,715.2
2016-04-05T00:53:45.251Z,715.26
2016-04-05T00:53:59.392Z,715.3
2016-04-05T00:54:16.657Z,714.92
2016-04-05T00:54:31.142Z,715.03
2016-04-05T00:54:48.222Z,714.87
2016-04-05T00:55:02.487Z,715
2016-04-05T00:55:16.550Z,715.21
2016-04-05T00:55:30.503Z,715.16
2016-04-05T00:55:44.819Z,715.21
2016-04-05T00:56:00.944Z,715.43
2016-04-05T00:56:15.022Z,715.3
2016-04-05T00:56:29.069Z,715.09
2016-04-05T00:56:43.069Z,715.34
2016-04-05T00:56:57.025Z,715.11
2016-04-05T00:57:10.978Z,715.19
2016-04-05T00:57:25.150Z,715.22
2016-04-05T00:57:38.884Z,715.17
2016-04-05T00:57:53.042Z,715.03
2016-04-05T00:58:07.386Z,714.88
2016-04-05T00:58:24.667Z,714.87
2016-04-05T00:58:38.980Z,714.91
2016-04-05T00:58:52.936Z,715.22
2016-04-05T00:59:07.030Z,715.15
2016-04-05T00:59:21.077Z,714.86
2016-04-05T00:59:35.280Z,714.97
2016-04-05T00:59:49.782Z,714.88
2016-04-05T01:00:04.344Z,714.8
2016-04-05T01:00:19.079Z,714.69
2016-04-05T01:00:33.047Z,715.27
2016-04-05T01:00:47.050Z,715.26
2016-04-05T01:01:02.066Z,715.29
2016-04-05T01:01:16.222Z,715.34
2016-04-05T01:01:30.222Z,715.02
2016-04-05T01:01:44.066Z,714.89
2016-04-05T01:01:58.022Z,714.61
2016-04-05T01:02:12.006Z,714.73
2016-04-05T01:02:25.913Z,715.02
2016-04-05T01:02:39.756Z,715.12
2016-04-05T01:02:54.384Z,715.14
2016-04-05T01:03:08.025Z,715.13
2016-04-05T01:03:22.291Z,715.24
2016-04-05T01:03:36.619Z,715.35
2016-04-05T01:03:50.684Z,715.23
2016-04-05T01:04:05.059Z,715.32
2016-04-05T01:04:18.903Z,715.37
2016-04-05T01:04:33.059Z,715.32
2016-04-05T01:04:46.328Z,714.95
2016-04-05T01:05:00.844Z,715.2
2016-04-05T01:05:15.109Z,715.27
2016-04-05T01:05:29.765Z,715.37
2016-04-05T01:05:43.031Z,715.11
2016-04-05T01:05:57.174Z,715.31
2016-04-05T01:06:11.080Z,715.15
2016-04-05T01:06:25.049Z,715.04
2016-04-05T01:06:39.533Z,715.02
2016-04-05T01:06:53.864Z,714.98
2016-04-05T01:07:08.239Z,715.05
2016-04-05T01:07:22.411Z,715.08
2016-04-05T01:07:36.286Z,715.06
2016-04-05T01:07:50.335Z,715.13
2016-04-05T01:08:04.569Z,715.13
2016-04-05T01:08:18.772Z,715.31
2016-04-05T01:08:32.663Z,715.21
2016-04-05T01:08:46.713Z,715.08
2016-04-05T01:09:00.197Z,715.11
2016-04-05T01:09:14.572Z,715.13
2016-04-05T01:09:28.307Z,715.2
2016-04-05T01:09:42.463Z,715.35
2016-04-05T01:09:56.450Z,715.28
2016-04-05T01:10:10.732Z,715.33
2016-04-05T01:10:24.653Z,715.35
2016-04-05T01:10:52.562Z,715.1
2016-04-05T01:11:09.812Z,715.1
2016-04-05T01:11:23.624Z,714.97
2016-04-05T01:11:37.452Z,715.08
2016-04-05T01:11:51.346Z,715.06
2016-04-05T01:12:05.658Z,715.16
2016-04-05T01:12:19.643Z,714.98
2016-04-05T01:12:33.690Z,714.95
2016-04-05T01:12:47.551Z,714.85
2016-04-05T01:13:01.848Z,715.18
2016-04-05T01:13:16.301Z,715.39
2016-04-05T01:13:30.239Z,715.12
2016-04-05T01:13:44.239Z,715.28
2016-04-05T01:13:58.273Z,715.13
2016-04-05T01:14:12.320Z,715.21
2016-04-05T01:14:26.492Z,715.16
2016-04-05T01:14:41.335Z,715.05
2016-04-05T01:14:54.963Z,714.93
2016-04-05T01:15:09.151Z,715.01
2016-04-05T01:15:23.120Z,715
2016-04-05T01:15:37.260Z,715.07
2016-04-05T01:16:05.731Z,715.06
2016-04-05T01:16:19.028Z,715.03
2016-04-05T01:16:33.293Z,715.06
2016-04-05T01:16:47.093Z,714.88
2016-04-05T01:17:01.234Z,714.96
2016-04-05T01:17:15.328Z,715.01
2016-04-05T01:17:29.609Z,715.15
2016-04-05T01:17:43.750Z,715.08
2016-04-05T01:17:57.924Z,715.29
2016-04-05T01:18:12.315Z,715.17
2016-04-05T01:18:26.315Z,715.11
2016-04-05T01:18:40.549Z,715.27
2016-04-05T01:18:54.568Z,715.11
2016-04-05T01:19:08.834Z,715.14
2016-04-05T01:19:22.693Z,715.07
2016-04-05T01:19:36.506Z,714.91
2016-04-05T01:19:50.712Z,714.93
2016-04-05T01:20:04.290Z,715.13
2016-04-05T01:20:18.227Z,715.06
2016-04-05T01:20:31.337Z,714.97
2016-04-05T01:20:45.323Z,714.96
2016-04-05T01:20:59.792Z,715.04
2016-04-05T01:21:14.261Z,715.06
2016-04-05T01:21:28.386Z,715.06
2016-04-05T01:21:42.573Z,715.15
2016-04-05T01:21:56.467Z,714.91
2016-04-05T01:22:10.389Z,714.93
2016-04-05T01:22:27.373Z,714.9
2016-04-05T01:22:41.576Z,714.98
2016-04-05T01:22:54.906Z,714.93
2016-04-05T01:23:09.297Z,714.87
2016-04-05T01:23:23.312Z,715.01
2016-04-05T01:24:06.050Z,714.9
2016-04-05T01:24:19.925Z,714.93
2016-04-05T01:24:34.144Z,715.1
2016-04-05T01:24:48.647Z,714.92
2016-04-05T01:25:02.709Z,715.02
2016-04-05T01:25:16.662Z,714.97
2016-04-05T01:25:30.725Z,715.13
2016-04-05T01:25:45.070Z,715.39
2016-04-05T01:25:59.242Z,715.12
2016-04-05T01:26:27.570Z,714.94
2016-04-05T01:26:44.620Z,715.09
2016-04-05T01:26:58.511Z,715.06
2016-04-05T01:27:26.823Z,714.84
2016-04-05T01:27:40.683Z,714.76
2016-04-05T01:27:55.061Z,714.81
2016-04-05T01:28:08.639Z,714.92
2016-04-05T01:28:22.686Z,714.93
2016-04-05T01:28:39.905Z,714.98
2016-04-05T01:28:53.875Z,715.03
2016-04-05T01:29:07.797Z,714.95
2016-04-05T01:29:21.703Z,714.92
2016-04-05T01:29:36.328Z,714.91
2016-04-05T01:29:50.425Z,714.91
2016-04-05T01:30:04.644Z,714.87
2016-04-05T01:30:18.597Z,714.88
2016-04-05T01:30:32.722Z,714.85
2016-04-05T01:30:46.959Z,714.97
2016-04-05T01:31:00.975Z,714.96
2016-04-05T01:31:15.178Z,715.1
2016-04-05T01:31:29.303Z,715.06
2016-04-05T01:31:43.194Z,714.84
2016-04-05T01:31:57.197Z,714.79
2016-04-05T01:32:11.353Z,714.83
2016-04-05T01:32:25.400Z,714.79
2016-04-05T01:32:39.181Z,714.8
2016-04-05T01:32:53.465Z,714.88
2016-04-05T01:33:07.262Z,714.9
2016-04-05T01:33:21.419Z,715.01
2016-04-05T01:33:35.231Z,715.05
2016-04-05T01:33:49.374Z,715.01
2016-04-05T01:34:03.452Z,715.1
2016-04-05T01:34:17.686Z,715.03
2016-04-05T01:34:31.077Z,715.2
2016-04-05T01:34:45.361Z,715.26
2016-04-05T01:34:59.689Z,715.08
2016-04-05T01:35:13.627Z,715.01
2016-04-05T01:35:28.142Z,715.07
2016-04-05T01:35:42.174Z,714.98
2016-04-05T01:35:59.301Z,714.98
2016-04-05T01:36:13.519Z,715.03
2016-04-05T01:36:27.551Z,715.11
2016-04-05T01:36:41.707Z,715.08
2016-04-05T01:36:55.600Z,715.04
2016-04-05T01:37:12.429Z,714.89
2016-04-05T01:37:26.538Z,714.99
2016-04-05T01:37:40.710Z,715.09
2016-04-05T01:37:54.619Z,714.81
2016-04-05T01:38:08.463Z,715
2016-04-05T01:38:23.353Z,715.02
2016-04-05T01:38:37.353Z,714.6
2016-04-05T01:38:51.496Z,714.94
2016-04-05T01:39:05.684Z,714.93
2016-04-05T01:39:19.902Z,715.15
2016-04-05T01:39:34.246Z,714.44
2016-04-05T01:39:48.281Z,714.91
2016-04-05T01:40:02.672Z,714.77
2016-04-05T01:40:16.688Z,715.02
2016-04-05T01:40:44.877Z,714.94
2016-04-05T01:40:58.783Z,715.13
2016-04-05T01:41:12.846Z,715.01
2016-04-05T01:41:26.799Z,715.05
2016-04-05T01:41:40.736Z,715.17
2016-04-05T01:41:54.630Z,715.37
2016-04-05T01:42:08.458Z,715.19
2016-04-05T01:42:22.271Z,714.96
2016-04-05T01:42:36.380Z,715.04
2016-04-05T01:42:50.602Z,715.15
2016-04-05T01:43:04.367Z,715.14
2016-04-05T01:43:18.539Z,715.21
2016-04-05T01:43:32.477Z,715.05
2016-04-05T01:43:46.604Z,715.04
2016-04-05T01:43:59.854Z,715.02
2016-04-05T01:44:14.198Z,714.91
2016-04-05T01:44:28.541Z,715.08
2016-04-05T01:44:42.916Z,714.99
2016-04-05T01:44:56.779Z,715.09
2016-04-05T01:45:10.982Z,714.84
2016-04-05T01:45:24.341Z,714.87
2016-04-05T01:45:38.299Z,715.03
2016-04-05T01:45:52.599Z,714.96
2016-04-05T01:46:07.146Z,714.94
2016-04-05T01:46:21.443Z,715.01
2016-04-05T01:46:35.189Z,715.02
2016-04-05T01:46:53.186Z,715.02
2016-04-05T01:47:07.123Z,715.18
2016-04-05T01:47:20.748Z,715.05
2016-04-05T01:47:34.780Z,714.97
2016-04-05T01:47:48.672Z,714.96
2016-04-05T01:48:03.922Z,714.83
2016-04-05T01:48:18.157Z,714.86
2016-04-05T01:48:32.532Z,715.12
2016-04-05T01:48:47.245Z,715.03
2016-04-05T01:49:03.878Z,715.05
2016-04-05T01:49:22.338Z,714.85
2016-04-05T01:49:50.435Z,715.04
2016-04-05T01:50:04.779Z,714.98
2016-04-05T01:50:22.201Z,714.76
2016-04-05T01:50:36.341Z,714.89
2016-04-05T01:50:53.625Z,714.76
2016-04-05T01:51:07.625Z,714.98
2016-04-05T01:51:21.656Z,714.98
2016-04-05T01:51:35.797Z,714.97
2016-04-05T01:51:49.987Z,714.99
2016-04-05T01:52:04.065Z,714.97
2016-04-05T01:52:18.034Z,714.87
2016-04-05T01:52:31.190Z,714.91
2016-04-05T01:52:45.193Z,715.02
2016-04-05T01:52:59.287Z,714.93
2016-04-05T01:53:13.396Z,714.98
2016-04-05T01:53:27.381Z,714.8
2016-04-05T01:53:41.459Z,714.96
2016-04-05T01:53:55.476Z,715.08
2016-04-05T01:54:09.711Z,714.91
2016-04-05T01:54:23.992Z,715.03
2016-04-05T01:54:41.305Z,715.08
2016-04-05T01:54:55.684Z,715.04
2016-04-05T01:55:09.496Z,715.07
2016-04-05T01:55:23.637Z,715.15
2016-04-05T01:55:37.668Z,714.82
2016-04-05T01:56:19.873Z,715.11
2016-04-05T01:56:34.311Z,714.94
2016-04-05T01:56:48.939Z,714.96
2016-04-05T01:57:01.907Z,714.9
2016-04-05T01:57:15.845Z,714.88
2016-04-05T01:57:30.485Z,714.95
2016-04-05T01:57:44.816Z,714.9
2016-04-05T01:57:58.987Z,715.04
2016-04-05T01:58:12.581Z,715.02
2016-04-05T01:58:26.659Z,715.22
2016-04-05T01:58:41.159Z,715.12
2016-04-05T01:59:09.147Z,715.15
2016-04-05T01:59:23.240Z,715.09
2016-04-05T01:59:37.225Z,715.13
2016-04-05T01:59:51.384Z,714.84
2016-04-05T02:00:05.915Z,714.97
2016-04-05T02:00:19.462Z,714.89
2016-04-05T02:00:33.447Z,715
2016-04-05T02:00:47.450Z,714.85
2016-04-05T02:01:01.825Z,715
2016-04-05T02:01:16.012Z,714.92
2016-04-05T02:01:30.153Z,715.04
2016-04-05T02:01:44.043Z,714.93
2016-04-05T02:01:57.889Z,715.1
2016-04-05T02:02:12.561Z,714.94
2016-04-05T02:02:26.983Z,715.06
2016-04-05T02:02:41.014Z,714.8
2016-04-05T02:02:55.548Z,714.89
2016-04-05T02:03:09.361Z,714.97
2016-04-05T02:03:24.080Z,715.08
2016-04-05T02:03:38.298Z,714.92
2016-04-05T02:03:52.676Z,715.09
2016-04-05T02:04:06.770Z,715.09
2016-04-05T02:04:20.739Z,714.91
2016-04-05T02:04:34.754Z,714.7
2016-04-05T02:04:49.148Z,714.9
2016-04-05T02:05:06.242Z,714.94
2016-04-05T02:05:20.179Z,714.84
2016-04-05T02:05:34.367Z,715.07
2016-04-05T02:05:48.464Z,715.06
2016-04-05T02:06:02.510Z,714.85
2016-04-05T02:06:16.635Z,714.87
2016-04-05T02:06:30.510Z,714.92
2016-04-05T02:06:44.479Z,715.09
2016-04-05T02:06:58.466Z,715.02
2016-04-05T02:07:12.325Z,715.03
2016-04-05T02:07:26.294Z,714.9
2016-04-05T02:07:40.247Z,715
2016-04-05T02:07:54.208Z,714.9
2016-04-05T02:08:08.567Z,714.84
2016-04-05T02:08:22.380Z,714.89
2016-04-05T02:08:35.942Z,714.81
2016-04-05T02:08:50.101Z,715
2016-04-05T02:09:03.945Z,715.02
2016-04-05T02:09:18.039Z,715.11
2016-04-05T02:09:32.039Z,715.07
2016-04-05T02:09:49.369Z,714.98
2016-04-05T02:10:03.369Z,715
2016-04-05T02:10:17.619Z,714.79
2016-04-05T02:10:31.619Z,714.78
2016-04-05T02:10:45.466Z,714.8
2016-04-05T02:10:59.622Z,714.81
2016-04-05T02:11:13.841Z,714.78
2016-04-05T02:11:27.810Z,715.08
2016-04-05T02:11:41.919Z,714.98
2016-04-05T02:11:56.077Z,714.94
2016-04-05T02:12:10.015Z,715.03
2016-04-05T02:12:24.390Z,715.01
2016-04-05T02:12:38.468Z,714.97
2016-04-05T02:12:52.674Z,714.97
2016-04-05T02:13:06.736Z,714.98
2016-04-05T02:13:20.596Z,714.8
2016-04-05T02:13:34.549Z,714.9
2016-04-05T02:13:48.505Z,714.93
2016-04-05T02:14:02.349Z,714.73
2016-04-05T02:14:16.552Z,714.69
2016-04-05T02:14:30.896Z,714.77
2016-04-05T02:14:45.601Z,714.83
2016-04-05T02:14:59.554Z,714.87
2016-04-05T02:15:14.241Z,714.91
2016-04-05T02:15:28.601Z,714.93
2016-04-05T02:15:42.820Z,715.18
2016-04-05T02:15:56.823Z,714.99
2016-04-05T02:16:11.041Z,714.91
2016-04-05T02:16:25.260Z,714.95
2016-04-05T02:16:39.432Z,715.03
2016-04-05T02:16:53.809Z,714.98
2016-04-05T02:17:07.887Z,715
2016-04-05T02:17:22.293Z,714.96
2016-04-05T02:17:36.668Z,714.91
2016-04-05T02:17:50.734Z,715
2016-04-05T02:18:04.671Z,714.78
2016-04-05T02:18:19.187Z,714.96
2016-04-05T02:18:32.437Z,714.94
2016-04-05T02:18:46.409Z,714.82
2016-04-05T02:19:00.565Z,714.99
2016-04-05T02:19:17.565Z,714.92
2016-04-05T02:19:31.081Z,714.91
2016-04-05T02:19:44.865Z,715.06
2016-04-05T02:19:58.912Z,714.98
2016-04-05T02:20:16.052Z,714.8
2016-04-05T02:20:30.209Z,715.08
2016-04-05T02:20:44.084Z,714.86
2016-04-05T02:20:58.008Z,714.97
2016-04-05T02:21:15.258Z,714.86
2016-04-05T02:21:29.196Z,714.87
2016-04-05T02:21:43.368Z,714.96
2016-04-05T02:21:57.667Z,715.07
2016-04-05T02:22:11.885Z,714.9
2016-04-05T02:22:25.885Z,714.93
2016-04-05T02:22:40.042Z,714.92
2016-04-05T02:22:54.013Z,715.01
2016-04-05T02:23:07.935Z,714.88
2016-04-05T02:23:22.263Z,714.98
2016-04-05T02:23:35.482Z,714.84
2016-04-05T02:23:48.391Z,714.89
2016-04-05T02:24:02.673Z,714.78
2016-04-05T02:24:17.095Z,714.91
2016-04-05T02:24:34.485Z,715.04
2016-04-05T02:24:48.472Z,715.06
2016-04-05T02:25:01.940Z,714.91
2016-04-05T02:25:16.128Z,715.05
2016-04-05T02:25:30.347Z,715.11
2016-04-05T02:25:44.159Z,714.86
2016-04-05T02:25:58.318Z,714.76
2016-04-05T02:26:12.271Z,715
2016-04-05T02:26:26.459Z,714.8
2016-04-05T02:26:40.271Z,715.28
2016-04-05T02:26:54.148Z,714.93
2016-04-05T02:27:09.039Z,715.07
2016-04-05T02:27:23.367Z,714.87
2016-04-05T02:27:37.555Z,714.83
2016-04-05T02:27:51.558Z,714.95
2016-04-05T02:28:19.089Z,714.99
2016-04-05T02:28:33.214Z,715
2016-04-05T02:28:47.217Z,714.85
2016-04-05T02:29:30.029Z,714.97
2016-04-05T02:29:44.154Z,714.87
2016-04-05T02:29:58.797Z,714.96
2016-04-05T02:30:13.110Z,714.95
2016-04-05T02:30:29.828Z,714.88
2016-04-05T02:30:43.735Z,715
2016-04-05T02:30:58.254Z,714.97
2016-04-05T02:31:12.332Z,714.97
2016-04-05T02:31:26.535Z,714.93
2016-04-05T02:31:40.832Z,714.94
2016-04-05T02:31:55.241Z,714.88
2016-04-05T02:32:09.194Z,715.05
2016-04-05T02:32:23.116Z,714.86
2016-04-05T02:32:40.225Z,714.92
2016-04-05T02:32:58.087Z,714.93
2016-04-05T02:33:12.540Z,714.95
2016-04-05T02:33:26.587Z,714.81
2016-04-05T02:33:40.744Z,714.86
2016-04-05T02:33:54.902Z,714.99
2016-04-05T02:34:08.652Z,714.82
2016-04-05T02:34:22.871Z,714.67
2016-04-05T02:34:36.917Z,714.91
2016-04-05T02:34:51.124Z,714.85
2016-04-05T02:35:05.233Z,714.86
2016-04-05T02:35:19.795Z,714.81
2016-04-05T02:35:33.874Z,714.83
2016-04-05T02:35:48.361Z,714.79
2016-04-05T02:36:02.845Z,714.88
2016-04-05T02:36:16.673Z,714.83
2016-04-05T02:36:30.548Z,714.93
2016-04-05T02:36:44.736Z,714.93
2016-04-05T02:37:01.989Z,714.87
2016-04-05T02:37:30.255Z,714.89
2016-04-05T02:37:44.364Z,714.79
2016-04-05T02:37:58.460Z,714.88
2016-04-05T02:38:12.413Z,714.9
2016-04-05T02:38:25.944Z,714.73
2016-04-05T02:38:40.132Z,714.98
2016-04-05T02:38:53.775Z,714.77
2016-04-05T02:39:08.181Z,714.74
2016-04-05T02:39:22.463Z,714.67
2016-04-05T02:39:36.931Z,714.77
2016-04-05T02:39:51.183Z,714.94
2016-04-05T02:40:05.293Z,714.94
2016-04-05T02:40:19.293Z,714.98
2016-04-05T02:40:33.215Z,714.83
2016-04-05T02:40:46.577Z,714.85
2016-04-05T02:41:01.218Z,714.85
2016-04-05T02:41:15.171Z,714.81
2016-04-05T02:41:29.999Z,714.9
2016-04-05T02:41:43.624Z,714.87
2016-04-05T02:42:00.314Z,714.88
2016-04-05T02:42:14.189Z,714.89
2016-04-05T02:42:28.283Z,714.77
2016-04-05T02:42:42.205Z,714.93
2016-04-05T02:42:56.129Z,714.89
2016-04-05T02:43:10.473Z,714.88
2016-04-05T02:43:24.645Z,714.94
2016-04-05T02:43:39.098Z,714.93
2016-04-05T02:43:53.195Z,714.96
2016-04-05T02:44:07.305Z,714.98
2016-04-05T02:44:20.633Z,715.08
2016-04-05T02:44:34.461Z,714.9
2016-04-05T02:44:48.618Z,714.7
2016-04-05T02:45:02.650Z,714.83
2016-04-05T02:45:16.400Z,714.76
2016-04-05T02:45:30.650Z,714.58
2016-04-05T02:45:44.712Z,714.58
2016-04-05T02:45:58.983Z,714.66
2016-04-05T02:46:13.218Z,714.73
2016-04-05T02:46:30.233Z,714.8
2016-04-05T02:46:44.436Z,714.73
2016-04-05T02:46:58.536Z,714.67
2016-04-05T02:47:12.911Z,714.65
2016-04-05T02:47:27.051Z,714.6
2016-04-05T02:47:40.958Z,714.65
2016-04-05T02:47:55.135Z,714.59
2016-04-05T02:48:09.151Z,714.63
2016-04-05T02:48:23.416Z,714.63
2016-04-05T02:48:37.151Z,714.71
2016-04-05T02:48:51.281Z,714.79
2016-04-05T02:49:05.406Z,714.96
2016-04-05T02:49:19.578Z,714.53
2016-04-05T02:49:34.141Z,714.82
2016-04-05T02:49:48.068Z,714.68
2016-04-05T02:50:01.896Z,714.65
2016-04-05T02:50:15.803Z,714.74
2016-04-05T02:50:29.600Z,714.72
2016-04-05T02:50:43.506Z,714.69
2016-04-05T02:50:57.708Z,714.8
2016-04-05T02:51:11.958Z,714.77
2016-04-05T02:51:26.145Z,715.07
2016-04-05T02:51:40.052Z,714.74
2016-04-05T02:51:54.018Z,714.79
2016-04-05T02:52:08.175Z,714.67
2016-04-05T02:52:21.987Z,714.73
2016-04-05T02:52:36.222Z,714.78
2016-04-05T02:52:49.860Z,714.77
2016-04-05T02:53:04.126Z,714.79
2016-04-05T02:53:18.610Z,714.77
2016-04-05T02:53:33.376Z,714.73
2016-04-05T02:54:01.577Z,714.49
2016-04-05T02:54:15.311Z,714.54
2016-04-05T02:54:29.249Z,714.9
2016-04-05T02:54:43.780Z,714.75
2016-04-05T02:54:57.857Z,715.06
2016-04-05T02:55:12.123Z,714.86
2016-04-05T02:55:26.467Z,714.8
2016-04-05T02:55:40.467Z,714.77
2016-04-05T02:55:54.655Z,714.73
2016-04-05T02:56:22.780Z,714.69
2016-04-05T02:56:36.811Z,714.75
2016-04-05T02:56:50.953Z,714.92
2016-04-05T02:57:05.015Z,714.66
2016-04-05T02:57:25.156Z,714.25
2016-04-05T02:57:39.187Z,714.76
2016-04-05T02:57:53.173Z,714.43
2016-04-05T02:58:07.032Z,714.81
2016-04-05T02:58:22.235Z,714.73
2016-04-05T02:58:37.360Z,714.61
2016-04-05T02:58:51.408Z,714.78
2016-04-05T02:59:05.924Z,714.66
2016-04-05T02:59:20.096Z,714.72
2016-04-05T02:59:34.377Z,714.74
2016-04-05T02:59:48.783Z,714.6
2016-04-05T03:00:03.237Z,714.39
2016-04-05T03:00:17.597Z,714.6
2016-04-05T03:00:31.487Z,714.73
2016-04-05T03:00:45.597Z,714.6
2016-04-05T03:00:59.474Z,714.88
2016-04-05T03:01:13.520Z,714.72
2016-04-05T03:01:27.536Z,714.48
2016-04-05T03:01:41.661Z,714.74
2016-04-05T03:01:55.647Z,714.77
2016-04-05T03:02:10.288Z,714.82
2016-04-05T03:02:24.507Z,714.66
2016-04-05T03:02:38.319Z,714.67
2016-04-05T03:02:52.071Z,714.47
2016-04-05T03:03:06.165Z,714.78
2016-04-05T03:03:20.087Z,714.69
2016-04-05T03:03:33.962Z,714.64
2016-04-05T03:03:47.993Z,714.63
2016-04-05T03:04:16.261Z,714.86
2016-04-05T03:04:30.073Z,714.21
2016-04-05T03:04:43.448Z,714.82
2016-04-05T03:04:57.685Z,714.96
2016-04-05T03:05:11.653Z,714.66
2016-04-05T03:05:25.450Z,714.6